sensor_id;sensor_type;location;lat;lon;timestamp;temperature;humidity
54272;DHT22;40184;53.362;5.216;2022-11-20T00:00:50;4.40;99.90
54272;DHT22;40184;53.362;5.216;2022-11-20T00:03:15;4.30;99.90
54272;DHT22;40184;53.362;5.216;2022-11-20T00:05:43;4.30;99.90
54272;DHT22;40184;53.362;5.216;2022-11-20T00:08:09;4.30;99.90
54272;DHT22;40184;53.362;5.216;2022-11-20T00:10:39;4.30;99.90
54272;DHT22;40184;53.362;5.216;2022-11-20T00:13:05;4.30;99.90
54272;DHT22;40184;53.362;5.216;2022-11-20T00:15:31;4.20;99.90
54272;DHT22;40184;53.362;5.216;2022-11-20T00:17:57;4.20;99.90
54272;DHT22;40184;53.362;5.216;2022-11-20T00:20:23;4.20;99.90
54272;DHT22;40184;53.362;5.216;2022-11-20T00:22:49;4.10;99.90
54272;DHT22;40184;53.362;5.216;2022-11-20T00:25:15;4.10;99.90
54272;DHT22;40184;53.362;5.216;2022-11-20T00:27:40;4.10;99.90
54272;DHT22;40184;53.362;5.216;2022-11-20T00:30:07;4.10;99.90
54272;DHT22;40184;53.362;5.216;2022-11-20T00:32:33;4.10;99.90
54272;DHT22;40184;53.362;5.216;2022-11-20T00:34:58;4.10;99.90
54272;DHT22;40184;53.362;5.216;2022-11-20T00:37:24;4.10;99.90
54272;DHT22;40184;53.362;5.216;2022-11-20T00:39:49;4.00;99.90
54272;DHT22;40184;53.362;5.216;2022-11-20T00:42:15;4.00;99.90
54272;DHT22;40184;53.362;5.216;2022-11-20T00:44:41;4.00;99.90
54272;DHT22;40184;53.362;5.216;2022-11-20T00:47:06;4.00;99.90
54272;DHT22;40184;53.362;5.216;2022-11-20T00:49:32;4.10;99.90
54272;DHT22;40184;53.362;5.216;2022-11-20T00:51:58;4.10;99.90
54272;DHT22;40184;53.362;5.216;2022-11-20T00:54:23;4.10;99.90
54272;DHT22;40184;53.362;5.216;2022-11-20T00:56:49;4.10;99.90
54272;DHT22;40184;53.362;5.216;2022-11-20T00:59:14;4.10;99.90
54272;DHT22;40184;53.362;5.216;2022-11-20T01:01:40;4.20;99.90
54272;DHT22;40184;53.362;5.216;2022-11-20T01:04:05;4.20;99.90
54272;DHT22;40184;53.362;5.216;2022-11-20T01:06:34;4.20;99.90
54272;DHT22;40184;53.362;5.216;2022-11-20T01:09:03;4.20;99.90
54272;DHT22;40184;53.362;5.216;2022-11-20T01:11:32;4.20;99.90
54272;DHT22;40184;53.362;5.216;2022-11-20T01:13:59;4.30;99.90
54272;DHT22;40184;53.362;5.216;2022-11-20T01:16:29;4.30;99.90
54272;DHT22;40184;53.362;5.216;2022-11-20T01:18:58;4.20;99.90
54272;DHT22;40184;53.362;5.216;2022-11-20T01:21:29;4.20;99.90
54272;DHT22;40184;53.362;5.216;2022-11-20T01:23:55;4.20;99.90
54272;DHT22;40184;53.362;5.216;2022-11-20T01:26:25;4.20;99.90
54272;DHT22;40184;53.362;5.216;2022-11-20T01:28:54;4.10;99.90
54272;DHT22;40184;53.362;5.216;2022-11-20T01:31:24;4.20;99.90
54272;DHT22;40184;53.362;5.216;2022-11-20T01:33:52;4.10;99.90
54272;DHT22;40184;53.362;5.216;2022-11-20T01:36:20;4.10;99.90
54272;DHT22;40184;53.362;5.216;2022-11-20T01:38:46;4.10;99.90
54272;DHT22;40184;53.362;5.216;2022-11-20T01:41:13;4.10;99.90
54272;DHT22;40184;53.362;5.216;2022-11-20T01:44:00;4.10;99.90
54272;DHT22;40184;53.362;5.216;2022-11-20T01:46:25;4.10;99.90
54272;DHT22;40184;53.362;5.216;2022-11-20T01:49:28;4.10;99.90
54272;DHT22;40184;53.362;5.216;2022-11-20T01:55:02;4.20;99.90
54272;DHT22;40184;53.362;5.216;2022-11-20T01:57:31;4.20;99.90
54272;DHT22;40184;53.362;5.216;2022-11-20T02:00:02;4.20;99.90
54272;DHT22;40184;53.362;5.216;2022-11-20T02:02:28;4.30;99.90
54272;DHT22;40184;53.362;5.216;2022-11-20T02:04:56;4.30;99.90
54272;DHT22;40184;53.362;5.216;2022-11-20T02:07:24;4.30;99.90
54272;DHT22;40184;53.362;5.216;2022-11-20T02:09:50;4.30;99.90
54272;DHT22;40184;53.362;5.216;2022-11-20T02:12:16;4.30;99.90
54272;DHT22;40184;53.362;5.216;2022-11-20T02:15:01;4.30;99.90
54272;DHT22;40184;53.362;5.216;2022-11-20T02:17:26;4.30;99.90
54272;DHT22;40184;53.362;5.216;2022-11-20T02:19:53;4.30;99.90
54272;DHT22;40184;53.362;5.216;2022-11-20T02:22:29;4.20;99.90
54272;DHT22;40184;53.362;5.216;2022-11-20T02:24:57;4.20;99.90
54272;DHT22;40184;53.362;5.216;2022-11-20T02:27:24;4.20;99.90
54272;DHT22;40184;53.362;5.216;2022-11-20T02:29:53;4.20;99.90
54272;DHT22;40184;53.362;5.216;2022-11-20T02:34:51;4.20;99.90
54272;DHT22;40184;53.362;5.216;2022-11-20T02:37:18;4.10;99.90
54272;DHT22;40184;53.362;5.216;2022-11-20T02:39:46;4.10;99.90
54272;DHT22;40184;53.362;5.216;2022-11-20T02:42:12;4.20;99.90
54272;DHT22;40184;53.362;5.216;2022-11-20T02:44:38;4.10;99.90
54272;DHT22;40184;53.362;5.216;2022-11-20T02:47:04;4.10;99.90
54272;DHT22;40184;53.362;5.216;2022-11-20T02:49:29;4.10;99.90
54272;DHT22;40184;53.362;5.216;2022-11-20T02:51:55;4.10;99.90
54272;DHT22;40184;53.362;5.216;2022-11-20T02:54:20;4.20;99.90
54272;DHT22;40184;53.362;5.216;2022-11-20T02:56:46;4.20;99.90
54272;DHT22;40184;53.362;5.216;2022-11-20T02:59:12;4.10;99.90
54272;DHT22;40184;53.362;5.216;2022-11-20T03:01:37;4.10;99.90
54272;DHT22;40184;53.362;5.216;2022-11-20T03:04:04;4.10;99.90
54272;DHT22;40184;53.362;5.216;2022-11-20T03:06:29;4.10;99.90
54272;DHT22;40184;53.362;5.216;2022-11-20T03:08:55;4.10;99.90
54272;DHT22;40184;53.362;5.216;2022-11-20T03:11:20;4.20;99.90
54272;DHT22;40184;53.362;5.216;2022-11-20T03:13:46;4.20;99.90
54272;DHT22;40184;53.362;5.216;2022-11-20T03:16:17;4.20;99.90
54272;DHT22;40184;53.362;5.216;2022-11-20T03:18:44;4.20;99.90
54272;DHT22;40184;53.362;5.216;2022-11-20T03:21:11;4.20;99.90
54272;DHT22;40184;53.362;5.216;2022-11-20T03:23:37;4.20;99.90
54272;DHT22;40184;53.362;5.216;2022-11-20T03:26:16;4.20;99.90
54272;DHT22;40184;53.362;5.216;2022-11-20T03:28:46;4.20;99.90
54272;DHT22;40184;53.362;5.216;2022-11-20T03:31:14;4.30;99.90
54272;DHT22;40184;53.362;5.216;2022-11-20T03:33:41;4.30;99.90
54272;DHT22;40184;53.362;5.216;2022-11-20T03:36:13;4.30;99.90
54272;DHT22;40184;53.362;5.216;2022-11-20T03:38:39;4.20;99.90
54272;DHT22;40184;53.362;5.216;2022-11-20T03:41:19;4.20;99.90
54272;DHT22;40184;53.362;5.216;2022-11-20T03:43:54;4.30;99.90
54272;DHT22;40184;53.362;5.216;2022-11-20T03:46:20;4.30;99.90
54272;DHT22;40184;53.362;5.216;2022-11-20T03:48:47;4.30;99.90
54272;DHT22;40184;53.362;5.216;2022-11-20T03:51:15;4.30;99.90
54272;DHT22;40184;53.362;5.216;2022-11-20T03:53:42;4.30;99.90
54272;DHT22;40184;53.362;5.216;2022-11-20T03:56:10;4.20;99.90
54272;DHT22;40184;53.362;5.216;2022-11-20T03:58:37;4.20;99.90
54272;DHT22;40184;53.362;5.216;2022-11-20T04:01:14;4.20;99.90
54272;DHT22;40184;53.362;5.216;2022-11-20T04:03:41;4.20;99.90
54272;DHT22;40184;53.362;5.216;2022-11-20T04:06:13;4.20;99.90
54272;DHT22;40184;53.362;5.216;2022-11-20T04:08:40;4.30;99.90
54272;DHT22;40184;53.362;5.216;2022-11-20T04:11:18;4.20;99.90
54272;DHT22;40184;53.362;5.216;2022-11-20T04:13:49;4.30;99.90
54272;DHT22;40184;53.362;5.216;2022-11-20T04:16:16;4.30;99.90
54272;DHT22;40184;53.362;5.216;2022-11-20T04:18:41;4.30;99.90
54272;DHT22;40184;53.362;5.216;2022-11-20T04:21:08;4.30;99.90
54272;DHT22;40184;53.362;5.216;2022-11-20T04:23:34;4.30;99.90
54272;DHT22;40184;53.362;5.216;2022-11-20T04:26:02;4.20;99.90
54272;DHT22;40184;53.362;5.216;2022-11-20T04:28:28;4.20;99.90
54272;DHT22;40184;53.362;5.216;2022-11-20T04:30:53;4.20;99.90
54272;DHT22;40184;53.362;5.216;2022-11-20T04:33:19;4.20;99.90
54272;DHT22;40184;53.362;5.216;2022-11-20T04:35:46;4.20;99.90
54272;DHT22;40184;53.362;5.216;2022-11-20T04:38:12;4.30;99.90
54272;DHT22;40184;53.362;5.216;2022-11-20T04:40:38;4.30;99.90
54272;DHT22;40184;53.362;5.216;2022-11-20T04:43:03;4.30;99.90
54272;DHT22;40184;53.362;5.216;2022-11-20T04:45:29;4.30;99.90
54272;DHT22;40184;53.362;5.216;2022-11-20T04:47:55;4.30;99.90
54272;DHT22;40184;53.362;5.216;2022-11-20T04:50:20;4.30;99.90
54272;DHT22;40184;53.362;5.216;2022-11-20T04:52:46;4.30;99.90
54272;DHT22;40184;53.362;5.216;2022-11-20T04:55:12;4.30;99.90
54272;DHT22;40184;53.362;5.216;2022-11-20T04:57:37;4.30;99.90
54272;DHT22;40184;53.362;5.216;2022-11-20T05:00:04;4.30;99.90
54272;DHT22;40184;53.362;5.216;2022-11-20T05:02:30;4.40;99.90
54272;DHT22;40184;53.362;5.216;2022-11-20T05:04:56;4.40;99.90
54272;DHT22;40184;53.362;5.216;2022-11-20T05:07:22;4.50;99.90
54272;DHT22;40184;53.362;5.216;2022-11-20T05:09:47;4.50;99.90
54272;DHT22;40184;53.362;5.216;2022-11-20T05:12:13;4.60;99.90
54272;DHT22;40184;53.362;5.216;2022-11-20T05:14:39;4.60;99.90
54272;DHT22;40184;53.362;5.216;2022-11-20T05:17:04;4.60;99.90
54272;DHT22;40184;53.362;5.216;2022-11-20T05:19:30;4.60;99.90
54272;DHT22;40184;53.362;5.216;2022-11-20T05:21:56;4.60;99.90
54272;DHT22;40184;53.362;5.216;2022-11-20T05:24:21;4.60;99.90
54272;DHT22;40184;53.362;5.216;2022-11-20T05:26:47;4.60;99.90
54272;DHT22;40184;53.362;5.216;2022-11-20T05:29:13;4.60;99.90
54272;DHT22;40184;53.362;5.216;2022-11-20T05:31:40;4.60;99.90
54272;DHT22;40184;53.362;5.216;2022-11-20T05:34:06;4.60;99.90
54272;DHT22;40184;53.362;5.216;2022-11-20T05:36:33;4.60;99.90
54272;DHT22;40184;53.362;5.216;2022-11-20T05:38:59;4.50;99.90
54272;DHT22;40184;53.362;5.216;2022-11-20T05:41:26;4.60;99.90
54272;DHT22;40184;53.362;5.216;2022-11-20T05:43:51;4.60;99.90
54272;DHT22;40184;53.362;5.216;2022-11-20T05:46:19;4.60;99.90
54272;DHT22;40184;53.362;5.216;2022-11-20T05:48:46;4.70;99.90
54272;DHT22;40184;53.362;5.216;2022-11-20T05:51:15;4.70;99.90
54272;DHT22;40184;53.362;5.216;2022-11-20T05:53:41;4.70;99.90
54272;DHT22;40184;53.362;5.216;2022-11-20T05:56:10;4.70;99.90
54272;DHT22;40184;53.362;5.216;2022-11-20T05:58:36;4.70;99.90
54272;DHT22;40184;53.362;5.216;2022-11-20T06:01:21;4.70;99.90
54272;DHT22;40184;53.362;5.216;2022-11-20T06:03:47;4.80;99.90
54272;DHT22;40184;53.362;5.216;2022-11-20T06:06:15;4.80;99.90
54272;DHT22;40184;53.362;5.216;2022-11-20T06:08:41;4.80;99.90
54272;DHT22;40184;53.362;5.216;2022-11-20T06:11:09;4.80;99.90
54272;DHT22;40184;53.362;5.216;2022-11-20T06:13:35;4.80;99.90
54272;DHT22;40184;53.362;5.216;2022-11-20T06:16:01;4.80;99.90
54272;DHT22;40184;53.362;5.216;2022-11-20T06:18:28;4.80;99.90
54272;DHT22;40184;53.362;5.216;2022-11-20T06:21:05;4.80;99.90
54272;DHT22;40184;53.362;5.216;2022-11-20T06:23:32;4.80;99.90
54272;DHT22;40184;53.362;5.216;2022-11-20T06:26:02;4.90;99.90
54272;DHT22;40184;53.362;5.216;2022-11-20T06:28:28;4.90;99.90
54272;DHT22;40184;53.362;5.216;2022-11-20T06:30:53;4.80;99.90
54272;DHT22;40184;53.362;5.216;2022-11-20T06:33:19;4.80;99.90
54272;DHT22;40184;53.362;5.216;2022-11-20T06:35:45;4.80;99.90
54272;DHT22;40184;53.362;5.216;2022-11-20T06:38:10;4.80;99.90
54272;DHT22;40184;53.362;5.216;2022-11-20T06:40:36;4.80;99.90
54272;DHT22;40184;53.362;5.216;2022-11-20T06:43:04;4.70;99.90
54272;DHT22;40184;53.362;5.216;2022-11-20T06:45:30;4.80;99.90
54272;DHT22;40184;53.362;5.216;2022-11-20T06:47:57;4.70;99.90
54272;DHT22;40184;53.362;5.216;2022-11-20T06:50:23;4.70;99.90
54272;DHT22;40184;53.362;5.216;2022-11-20T06:52:49;4.70;99.90
54272;DHT22;40184;53.362;5.216;2022-11-20T06:55:15;4.70;99.90
54272;DHT22;40184;53.362;5.216;2022-11-20T06:57:40;4.60;99.90
54272;DHT22;40184;53.362;5.216;2022-11-20T07:00:06;4.60;99.90
54272;DHT22;40184;53.362;5.216;2022-11-20T07:02:32;4.60;99.90
54272;DHT22;40184;53.362;5.216;2022-11-20T07:04:58;4.60;99.90
54272;DHT22;40184;53.362;5.216;2022-11-20T07:07:23;4.60;99.90
54272;DHT22;40184;53.362;5.216;2022-11-20T07:09:49;4.60;99.90
54272;DHT22;40184;53.362;5.216;2022-11-20T07:12:15;4.50;99.90
54272;DHT22;40184;53.362;5.216;2022-11-20T07:14:40;4.60;99.90
54272;DHT22;40184;53.362;5.216;2022-11-20T07:17:06;4.50;99.90
54272;DHT22;40184;53.362;5.216;2022-11-20T07:19:31;4.60;99.90
54272;DHT22;40184;53.362;5.216;2022-11-20T07:21:57;4.60;99.90
54272;DHT22;40184;53.362;5.216;2022-11-20T07:24:23;4.60;99.90
54272;DHT22;40184;53.362;5.216;2022-11-20T07:26:48;4.60;99.90
54272;DHT22;40184;53.362;5.216;2022-11-20T07:29:15;4.50;99.90
54272;DHT22;40184;53.362;5.216;2022-11-20T07:31:40;4.50;99.90
54272;DHT22;40184;53.362;5.216;2022-11-20T07:34:06;4.50;99.90
54272;DHT22;40184;53.362;5.216;2022-11-20T07:36:32;4.50;99.90
54272;DHT22;40184;53.362;5.216;2022-11-20T07:38:57;4.50;99.90
54272;DHT22;40184;53.362;5.216;2022-11-20T07:41:23;4.50;99.90
54272;DHT22;40184;53.362;5.216;2022-11-20T07:43:48;4.50;99.90
54272;DHT22;40184;53.362;5.216;2022-11-20T07:46:14;4.40;99.90
54272;DHT22;40184;53.362;5.216;2022-11-20T07:48:40;4.40;99.90
54272;DHT22;40184;53.362;5.216;2022-11-20T07:51:08;4.40;99.90
54272;DHT22;40184;53.362;5.216;2022-11-20T07:53:34;4.40;99.90
54272;DHT22;40184;53.362;5.216;2022-11-20T07:56:00;4.50;99.90
54272;DHT22;40184;53.362;5.216;2022-11-20T07:58:29;4.50;99.90
54272;DHT22;40184;53.362;5.216;2022-11-20T08:00:55;4.50;99.90
54272;DHT22;40184;53.362;5.216;2022-11-20T08:03:21;4.60;99.90
54272;DHT22;40184;53.362;5.216;2022-11-20T08:05:46;4.60;99.90
54272;DHT22;40184;53.362;5.216;2022-11-20T08:08:12;4.60;99.90
54272;DHT22;40184;53.362;5.216;2022-11-20T08:10:38;4.60;99.90
54272;DHT22;40184;53.362;5.216;2022-11-20T08:13:03;4.60;99.90
54272;DHT22;40184;53.362;5.216;2022-11-20T08:15:49;4.60;99.90
54272;DHT22;40184;53.362;5.216;2022-11-20T08:18:16;4.70;99.90
54272;DHT22;40184;53.362;5.216;2022-11-20T08:20:43;4.70;99.90
54272;DHT22;40184;53.362;5.216;2022-11-20T08:23:09;4.80;99.90
54272;DHT22;40184;53.362;5.216;2022-11-20T08:25:36;4.80;99.90
54272;DHT22;40184;53.362;5.216;2022-11-20T08:28:05;4.90;99.90
54272;DHT22;40184;53.362;5.216;2022-11-20T08:30:31;4.90;99.90
54272;DHT22;40184;53.362;5.216;2022-11-20T08:33:05;5.00;99.90
54272;DHT22;40184;53.362;5.216;2022-11-20T08:35:35;5.00;99.90
54272;DHT22;40184;53.362;5.216;2022-11-20T08:38:02;5.10;99.90
54272;DHT22;40184;53.362;5.216;2022-11-20T08:40:28;5.10;99.90
54272;DHT22;40184;53.362;5.216;2022-11-20T08:42:54;5.10;99.90
54272;DHT22;40184;53.362;5.216;2022-11-20T08:45:20;5.20;99.90
54272;DHT22;40184;53.362;5.216;2022-11-20T08:47:46;5.20;99.90
54272;DHT22;40184;53.362;5.216;2022-11-20T08:50:13;5.20;99.90
54272;DHT22;40184;53.362;5.216;2022-11-20T08:52:39;5.20;99.90
54272;DHT22;40184;53.362;5.216;2022-11-20T08:55:05;5.20;99.90
54272;DHT22;40184;53.362;5.216;2022-11-20T08:57:35;5.30;99.90
54272;DHT22;40184;53.362;5.216;2022-11-20T09:00:03;5.30;99.90
54272;DHT22;40184;53.362;5.216;2022-11-20T09:02:29;5.30;99.90
54272;DHT22;40184;53.362;5.216;2022-11-20T09:04:55;5.40;99.90
54272;DHT22;40184;53.362;5.216;2022-11-20T09:07:20;5.40;99.90
54272;DHT22;40184;53.362;5.216;2022-11-20T09:09:46;5.50;99.90
54272;DHT22;40184;53.362;5.216;2022-11-20T09:12:12;5.60;99.90
54272;DHT22;40184;53.362;5.216;2022-11-20T09:14:37;5.70;99.90
54272;DHT22;40184;53.362;5.216;2022-11-20T09:17:03;5.80;99.90
54272;DHT22;40184;53.362;5.216;2022-11-20T09:19:28;5.80;99.90
54272;DHT22;40184;53.362;5.216;2022-11-20T09:21:54;5.80;99.90
54272;DHT22;40184;53.362;5.216;2022-11-20T09:24:20;5.80;99.90
54272;DHT22;40184;53.362;5.216;2022-11-20T09:26:46;5.80;99.90
54272;DHT22;40184;53.362;5.216;2022-11-20T09:29:12;5.90;99.90
54272;DHT22;40184;53.362;5.216;2022-11-20T09:31:37;5.90;99.90
54272;DHT22;40184;53.362;5.216;2022-11-20T09:34:03;5.90;99.90
54272;DHT22;40184;53.362;5.216;2022-11-20T09:36:28;5.80;99.90
54272;DHT22;40184;53.362;5.216;2022-11-20T09:38:54;5.80;99.90
54272;DHT22;40184;53.362;5.216;2022-11-20T09:46:59;5.80;99.90
54272;DHT22;40184;53.362;5.216;2022-11-20T09:54:42;5.70;99.90
54272;DHT22;40184;53.362;5.216;2022-11-20T09:59:44;5.70;99.90
54272;DHT22;40184;53.362;5.216;2022-11-20T10:07:44;5.60;99.90
54272;DHT22;40184;53.362;5.216;2022-11-20T10:10:19;5.60;99.90
54272;DHT22;40184;53.362;5.216;2022-11-20T10:13:10;5.60;99.90
54272;DHT22;40184;53.362;5.216;2022-11-20T10:25:12;5.60;99.90
54272;DHT22;40184;53.362;5.216;2022-11-20T10:30:18;5.70;99.90
54272;DHT22;40184;53.362;5.216;2022-11-20T10:33:08;5.70;99.90
54272;DHT22;40184;53.362;5.216;2022-11-20T10:35:44;5.80;99.90
54272;DHT22;40184;53.362;5.216;2022-11-20T10:38:27;5.90;99.90
54272;DHT22;40184;53.362;5.216;2022-11-20T10:40:59;5.90;99.90
54272;DHT22;40184;53.362;5.216;2022-11-20T10:43:46;6.00;99.90
54272;DHT22;40184;53.362;5.216;2022-11-20T10:46:18;6.00;99.90
54272;DHT22;40184;53.362;5.216;2022-11-20T10:48:45;6.10;99.90
54272;DHT22;40184;53.362;5.216;2022-11-20T10:51:21;6.20;99.90
54272;DHT22;40184;53.362;5.216;2022-11-20T10:56:41;6.50;99.90
54272;DHT22;40184;53.362;5.216;2022-11-20T11:02:01;6.70;99.90
54272;DHT22;40184;53.362;5.216;2022-11-20T11:04:37;6.70;99.90
54272;DHT22;40184;53.362;5.216;2022-11-20T11:07:22;6.80;99.90
54272;DHT22;40184;53.362;5.216;2022-11-20T11:09:54;6.70;99.90
54272;DHT22;40184;53.362;5.216;2022-11-20T11:12:22;6.80;99.90
54272;DHT22;40184;53.362;5.216;2022-11-20T11:14:50;7.00;99.90
54272;DHT22;40184;53.362;5.216;2022-11-20T11:17:31;7.00;99.90
54272;DHT22;40184;53.362;5.216;2022-11-20T11:22:29;7.20;99.90
54272;DHT22;40184;53.362;5.216;2022-11-20T11:24:55;7.40;99.90
54272;DHT22;40184;53.362;5.216;2022-11-20T11:27:21;7.40;99.90
54272;DHT22;40184;53.362;5.216;2022-11-20T11:29:46;7.30;99.90
54272;DHT22;40184;53.362;5.216;2022-11-20T11:32:18;7.30;99.90
54272;DHT22;40184;53.362;5.216;2022-11-20T11:35:02;7.30;99.90
54272;DHT22;40184;53.362;5.216;2022-11-20T11:37:36;7.20;99.90
54272;DHT22;40184;53.362;5.216;2022-11-20T11:40:08;7.00;99.90
54272;DHT22;40184;53.362;5.216;2022-11-20T11:42:46;7.00;99.90
54272;DHT22;40184;53.362;5.216;2022-11-20T11:45:16;6.80;99.90
54272;DHT22;40184;53.362;5.216;2022-11-20T11:52:44;6.60;99.90
54272;DHT22;40184;53.362;5.216;2022-11-20T11:55:17;6.50;99.90
54272;DHT22;40184;53.362;5.216;2022-11-20T11:57:54;6.50;99.90
54272;DHT22;40184;53.362;5.216;2022-11-20T12:00:22;6.50;99.90
54272;DHT22;40184;53.362;5.216;2022-11-20T12:03:06;6.30;99.90
54272;DHT22;40184;53.362;5.216;2022-11-20T12:05:47;6.30;99.90
54272;DHT22;40184;53.362;5.216;2022-11-20T12:11:00;6.20;99.90
54272;DHT22;40184;53.362;5.216;2022-11-20T12:13:41;6.20;99.90
54272;DHT22;40184;53.362;5.216;2022-11-20T12:16:13;6.20;99.90
54272;DHT22;40184;53.362;5.216;2022-11-20T12:18:40;6.10;99.90
54272;DHT22;40184;53.362;5.216;2022-11-20T12:21:17;6.10;99.90
54272;DHT22;40184;53.362;5.216;2022-11-20T12:38:26;5.90;99.90
54272;DHT22;40184;53.362;5.216;2022-11-20T13:07:03;5.50;99.90
54272;DHT22;40184;53.362;5.216;2022-11-20T13:09:30;5.40;99.90
54272;DHT22;40184;53.362;5.216;2022-11-20T13:17:45;5.20;99.90
54272;DHT22;40184;53.362;5.216;2022-11-20T13:20:15;5.20;99.90
54272;DHT22;40184;53.362;5.216;2022-11-20T13:22:47;5.20;99.90
54272;DHT22;40184;53.362;5.216;2022-11-20T13:28:00;5.20;99.90
54272;DHT22;40184;53.362;5.216;2022-11-20T13:30:27;5.10;99.90
54272;DHT22;40184;53.362;5.216;2022-11-20T13:32:57;5.10;99.90
54272;DHT22;40184;53.362;5.216;2022-11-20T13:35:37;5.20;99.90
54272;DHT22;40184;53.362;5.216;2022-11-20T13:38:14;5.10;99.90
54272;DHT22;40184;53.362;5.216;2022-11-20T13:43:32;5.10;99.90
54272;DHT22;40184;53.362;5.216;2022-11-20T13:46:04;5.00;99.90
54272;DHT22;40184;53.362;5.216;2022-11-20T13:48:41;5.00;99.90
54272;DHT22;40184;53.362;5.216;2022-11-20T13:54:04;5.10;99.90
54272;DHT22;40184;53.362;5.216;2022-11-20T13:56:59;5.00;99.90
54272;DHT22;40184;53.362;5.216;2022-11-20T14:01:58;5.00;99.90
54272;DHT22;40184;53.362;5.216;2022-11-20T14:04:38;5.00;99.90
54272;DHT22;40184;53.362;5.216;2022-11-20T14:07:09;5.00;99.90
54272;DHT22;40184;53.362;5.216;2022-11-20T14:09:35;5.00;99.90
54272;DHT22;40184;53.362;5.216;2022-11-20T14:12:02;5.00;99.90
54272;DHT22;40184;53.362;5.216;2022-11-20T14:14:30;4.90;99.90
54272;DHT22;40184;53.362;5.216;2022-11-20T14:17:17;4.90;99.90
54272;DHT22;40184;53.362;5.216;2022-11-20T14:19:44;4.90;99.90
54272;DHT22;40184;53.362;5.216;2022-11-20T14:22:21;4.90;99.90
54272;DHT22;40184;53.362;5.216;2022-11-20T14:24:47;4.80;99.90
54272;DHT22;40184;53.362;5.216;2022-11-20T14:27:20;4.80;99.90
54272;DHT22;40184;53.362;5.216;2022-11-20T14:29:47;4.90;99.90
54272;DHT22;40184;53.362;5.216;2022-11-20T14:32:18;4.80;99.90
54272;DHT22;40184;53.362;5.216;2022-11-20T14:34:47;4.80;99.90
54272;DHT22;40184;53.362;5.216;2022-11-20T14:37:19;4.80;99.90
54272;DHT22;40184;53.362;5.216;2022-11-20T14:39:51;4.80;99.90
54272;DHT22;40184;53.362;5.216;2022-11-20T14:42:23;4.80;99.90
54272;DHT22;40184;53.362;5.216;2022-11-20T14:44:50;4.90;99.90
54272;DHT22;40184;53.362;5.216;2022-11-20T14:47:28;4.90;99.90
54272;DHT22;40184;53.362;5.216;2022-11-20T14:49:55;4.90;99.90
54272;DHT22;40184;53.362;5.216;2022-11-20T14:52:26;5.00;99.90
54272;DHT22;40184;53.362;5.216;2022-11-20T14:54:55;4.90;99.90
54272;DHT22;40184;53.362;5.216;2022-11-20T14:57:32;5.00;99.90
54272;DHT22;40184;53.362;5.216;2022-11-20T15:02:33;5.00;99.90
54272;DHT22;40184;53.362;5.216;2022-11-20T15:05:00;4.90;99.90
54272;DHT22;40184;53.362;5.216;2022-11-20T15:07:32;4.90;99.90
54272;DHT22;40184;53.362;5.216;2022-11-20T15:12:32;4.80;99.90
54272;DHT22;40184;53.362;5.216;2022-11-20T15:14:58;4.80;99.90
54272;DHT22;40184;53.362;5.216;2022-11-20T15:17:24;4.80;99.90
54272;DHT22;40184;53.362;5.216;2022-11-20T15:19:50;4.80;99.90
54272;DHT22;40184;53.362;5.216;2022-11-20T15:22:16;4.80;99.90
54272;DHT22;40184;53.362;5.216;2022-11-20T15:24:42;4.90;99.90
54272;DHT22;40184;53.362;5.216;2022-11-20T15:27:09;4.90;99.90
54272;DHT22;40184;53.362;5.216;2022-11-20T15:29:34;4.90;99.90
54272;DHT22;40184;53.362;5.216;2022-11-20T15:32:01;4.80;99.90
54272;DHT22;40184;53.362;5.216;2022-11-20T15:34:27;4.80;99.90
54272;DHT22;40184;53.362;5.216;2022-11-20T15:36:53;4.80;99.90
54272;DHT22;40184;53.362;5.216;2022-11-20T15:39:20;4.80;99.90
54272;DHT22;40184;53.362;5.216;2022-11-20T15:41:46;4.70;99.90
54272;DHT22;40184;53.362;5.216;2022-11-20T15:44:12;4.70;99.90
54272;DHT22;40184;53.362;5.216;2022-11-20T15:46:40;4.70;99.90
54272;DHT22;40184;53.362;5.216;2022-11-20T15:49:17;4.70;99.90
54272;DHT22;40184;53.362;5.216;2022-11-20T15:51:47;4.70;99.90
54272;DHT22;40184;53.362;5.216;2022-11-20T15:54:17;4.60;99.90
54272;DHT22;40184;53.362;5.216;2022-11-20T15:56:46;4.60;99.90
54272;DHT22;40184;53.362;5.216;2022-11-20T15:59:12;4.60;99.90
54272;DHT22;40184;53.362;5.216;2022-11-20T16:01:40;4.60;99.90
54272;DHT22;40184;53.362;5.216;2022-11-20T16:04:10;4.50;99.90
54272;DHT22;40184;53.362;5.216;2022-11-20T16:06:36;4.50;99.90
54272;DHT22;40184;53.362;5.216;2022-11-20T16:09:02;4.50;99.90
54272;DHT22;40184;53.362;5.216;2022-11-20T16:11:27;4.50;99.90
54272;DHT22;40184;53.362;5.216;2022-11-20T16:13:53;4.50;99.90
54272;DHT22;40184;53.362;5.216;2022-11-20T16:16:38;4.40;99.90
54272;DHT22;40184;53.362;5.216;2022-11-20T16:19:15;4.40;99.90
54272;DHT22;40184;53.362;5.216;2022-11-20T16:21:41;4.40;99.90
54272;DHT22;40184;53.362;5.216;2022-11-20T16:24:09;4.40;99.90
54272;DHT22;40184;53.362;5.216;2022-11-20T16:26:36;4.40;99.90
54272;DHT22;40184;53.362;5.216;2022-11-20T16:29:03;4.40;99.90
54272;DHT22;40184;53.362;5.216;2022-11-20T16:31:29;4.40;99.90
54272;DHT22;40184;53.362;5.216;2022-11-20T16:33:57;4.40;99.90
54272;DHT22;40184;53.362;5.216;2022-11-20T16:36:24;4.30;99.90
54272;DHT22;40184;53.362;5.216;2022-11-20T16:39:01;4.40;99.90
54272;DHT22;40184;53.362;5.216;2022-11-20T16:41:30;4.40;99.90
54272;DHT22;40184;53.362;5.216;2022-11-20T16:43:58;4.40;99.90
54272;DHT22;40184;53.362;5.216;2022-11-20T16:46:26;4.40;99.90
54272;DHT22;40184;53.362;5.216;2022-11-20T16:48:57;4.40;99.90
54272;DHT22;40184;53.362;5.216;2022-11-20T16:51:24;4.40;99.90
54272;DHT22;40184;53.362;5.216;2022-11-20T16:53:50;4.40;99.90
54272;DHT22;40184;53.362;5.216;2022-11-20T16:56:21;4.40;99.90
54272;DHT22;40184;53.362;5.216;2022-11-20T16:58:48;4.40;99.90
54272;DHT22;40184;53.362;5.216;2022-11-20T17:01:16;4.40;99.90
54272;DHT22;40184;53.362;5.216;2022-11-20T17:03:43;4.50;99.90
54272;DHT22;40184;53.362;5.216;2022-11-20T17:06:18;4.40;99.90
54272;DHT22;40184;53.362;5.216;2022-11-20T17:08:44;4.40;99.90
54272;DHT22;40184;53.362;5.216;2022-11-20T17:11:12;4.40;99.90
54272;DHT22;40184;53.362;5.216;2022-11-20T17:13:38;4.40;99.90
54272;DHT22;40184;53.362;5.216;2022-11-20T17:16:06;4.30;99.90
54272;DHT22;40184;53.362;5.216;2022-11-20T17:18:33;4.30;99.90
54272;DHT22;40184;53.362;5.216;2022-11-20T17:20:59;4.30;99.90
54272;DHT22;40184;53.362;5.216;2022-11-20T17:23:30;4.30;99.90
54272;DHT22;40184;53.362;5.216;2022-11-20T17:26:01;4.20;99.90
54272;DHT22;40184;53.362;5.216;2022-11-20T17:28:28;4.30;99.90
54272;DHT22;40184;53.362;5.216;2022-11-20T17:31:01;4.20;99.90
54272;DHT22;40184;53.362;5.216;2022-11-20T17:33:28;4.30;99.90
54272;DHT22;40184;53.362;5.216;2022-11-20T17:35:53;4.30;99.90
54272;DHT22;40184;53.362;5.216;2022-11-20T17:38:19;4.20;99.90
54272;DHT22;40184;53.362;5.216;2022-11-20T17:40:45;4.30;99.90
54272;DHT22;40184;53.362;5.216;2022-11-20T17:43:11;4.20;99.90
54272;DHT22;40184;53.362;5.216;2022-11-20T17:45:36;4.20;99.90
54272;DHT22;40184;53.362;5.216;2022-11-20T17:48:02;4.20;99.90